createdAt,value
2019-02-28T00:02:11.337Z,42.10
2019-02-28T00:04:41.610Z,40.37
2019-02-28T00:07:11.905Z,41.07
2019-02-28T00:09:42.155Z,44.70
2019-02-28T00:12:13.534Z,45.03
2019-02-28T00:14:45.600Z,45.60
2019-02-28T00:17:35.047Z,43.77
2019-02-28T00:20:05.624Z,40.10
2019-02-28T00:22:35.807Z,38.93
2019-02-28T00:25:06.250Z,40.70
2019-02-28T00:27:36.528Z,41.87
2019-02-28T00:30:07.215Z,40.23
2019-02-28T00:32:37.506Z,35.87
2019-02-28T00:35:12.972Z,38.53
2019-02-28T00:37:39.937Z,36.87
2019-02-28T00:40:10.604Z,38.70
2019-02-28T00:42:41.242Z,39.27
2019-02-28T00:45:11.936Z,39.33
2019-02-28T00:47:42.163Z,37.57
2019-02-28T00:50:12.536Z,35.53
2019-02-28T00:52:42.668Z,38.37
2019-02-28T00:55:15.226Z,38.07
2019-02-28T00:57:45.854Z,39.50
2019-02-28T01:00:16.804Z,40.63
2019-02-28T01:02:51.886Z,38.77
2019-02-28T01:05:19.229Z,37.70
2019-02-28T01:07:49.798Z,40.00
2019-02-28T01:10:20.048Z,43.23
2019-02-28T01:12:53.463Z,37.67
2019-02-28T01:15:22.267Z,39.13
2019-02-28T01:17:52.486Z,38.60
2019-02-28T01:20:22.673Z,38.67
2019-02-28T01:22:52.932Z,40.20
2019-02-28T01:25:23.176Z,40.13
2019-02-28T01:27:53.394Z,41.27
2019-02-28T01:30:23.904Z,38.13
2019-02-28T01:32:54.163Z,37.87
2019-02-28T01:35:24.351Z,38.23
2019-02-28T01:37:54.573Z,37.40
2019-02-28T01:40:25.238Z,37.60
2019-02-28T01:42:55.473Z,38.53
2019-02-28T01:45:26.031Z,38.60
2019-02-28T01:47:56.351Z,37.57
2019-02-28T01:50:29.624Z,38.43
2019-02-28T01:52:58.483Z,39.07
2019-02-28T01:55:29.394Z,36.87
2019-02-28T01:58:00.434Z,37.03
2019-02-28T02:00:30.611Z,34.73
2019-02-28T02:03:00.930Z,38.37
2019-02-28T02:05:31.115Z,35.53
2019-02-28T02:08:06.556Z,36.10
2019-02-28T02:10:33.264Z,36.77
2019-02-28T02:13:04.320Z,36.80
2019-02-28T02:15:34.688Z,35.40
2019-02-28T02:18:06.386Z,35.63
2019-02-28T02:20:38.200Z,34.83
2019-02-28T02:23:08.783Z,34.53
2019-02-28T02:25:39.059Z,35.90
2019-02-28T02:28:09.270Z,36.80
2019-02-28T02:30:39.465Z,35.20
2019-02-28T02:33:13.578Z,35.17
2019-02-28T02:35:42.607Z,36.83
2019-02-28T02:38:13.384Z,38.00
2019-02-28T02:40:43.597Z,37.17
2019-02-28T02:43:14.099Z,35.87
2019-02-28T02:45:44.302Z,35.43
2019-02-28T02:48:15.250Z,36.43
2019-02-28T02:50:45.540Z,35.93
2019-02-28T02:53:15.746Z,35.47
2019-02-28T02:55:45.851Z,35.17
2019-02-28T02:58:16.081Z,36.97
2019-02-28T03:00:51.123Z,35.73
2019-02-28T03:03:18.189Z,35.33
2019-02-28T03:05:48.681Z,36.00
2019-02-28T03:08:18.985Z,36.17
2019-02-28T03:10:51.896Z,37.73
2019-02-28T03:13:21.020Z,36.63
2019-02-28T03:15:51.730Z,36.17
2019-02-28T03:18:21.950Z,34.13
2019-02-28T03:20:52.166Z,33.63
2019-02-28T03:23:22.388Z,35.90
2019-02-28T03:25:52.592Z,37.27
2019-02-28T03:28:22.817Z,34.73
2019-02-28T03:30:53.010Z,33.87
2019-02-28T03:33:27.471Z,34.87
2019-02-28T03:35:55.151Z,33.10
2019-02-28T03:38:25.442Z,33.33
2019-02-28T03:40:55.812Z,33.50
2019-02-28T03:43:26.137Z,34.13
2019-02-28T03:45:56.396Z,33.97
2019-02-28T03:48:26.997Z,33.67
2019-02-28T03:50:57.239Z,34.93
2019-02-28T03:53:27.518Z,36.43
2019-02-28T03:55:57.652Z,36.40
2019-02-28T03:58:27.899Z,34.93
2019-02-28T04:00:58.502Z,36.77
2019-02-28T04:03:33.486Z,35.60
2019-02-28T04:06:03.641Z,35.60
2019-02-28T04:08:32.857Z,34.87
2019-02-28T04:11:03.082Z,34.27
2019-02-28T04:13:33.372Z,31.53
2019-02-28T04:16:09.209Z,33.97
2019-02-28T04:18:35.821Z,33.10
2019-02-28T04:21:10.419Z,33.73
2019-02-28T04:23:38.012Z,36.13
2019-02-28T04:26:08.202Z,35.00
2019-02-28T04:28:39.562Z,38.50
2019-02-28T04:31:10.174Z,32.90
2019-02-28T04:33:40.386Z,32.40
2019-02-28T04:36:10.552Z,34.83
2019-02-28T04:38:40.763Z,32.77
2019-02-28T04:41:12.025Z,33.83
2019-02-28T04:43:44.355Z,33.40
2019-02-28T04:46:14.444Z,33.40
2019-02-28T04:48:45.686Z,36.13
2019-02-28T04:51:16.876Z,34.87
2019-02-28T04:53:47.088Z,34.20
2019-02-28T04:56:17.700Z,35.13
2019-02-28T04:58:47.902Z,34.23
2019-02-28T05:01:18.105Z,35.83
2019-02-28T05:03:49.452Z,35.70
2019-02-28T05:06:21.184Z,36.53
2019-02-28T05:08:51.894Z,35.97
2019-02-28T05:11:22.404Z,35.97
2019-02-28T05:13:52.632Z,33.73
2019-02-28T05:16:22.776Z,35.97
2019-02-28T05:18:54.105Z,37.93
2019-02-28T05:21:24.335Z,37.53
2019-02-28T05:23:54.492Z,34.93
2019-02-28T05:26:26.315Z,35.93
2019-02-28T05:28:56.868Z,35.00
2019-02-28T05:31:27.951Z,35.00
2019-02-28T05:33:58.358Z,34.93
2019-02-28T05:36:28.616Z,31.67
2019-02-28T05:38:58.851Z,33.77
2019-02-28T05:41:29.113Z,34.30
2019-02-28T05:43:59.311Z,33.97
2019-02-28T05:46:29.513Z,34.67
2019-02-28T05:48:59.770Z,36.60
2019-02-28T05:51:29.874Z,34.73
2019-02-28T05:54:00.448Z,33.40
2019-02-28T05:56:33.133Z,33.40
2019-02-28T05:59:02.838Z,33.20
2019-02-28T06:01:33.009Z,34.27
2019-02-28T06:04:04.048Z,33.80
2019-02-28T06:06:34.377Z,34.67
2019-02-28T06:09:05.713Z,33.77
2019-02-28T06:11:35.921Z,33.60
2019-02-28T06:14:06.114Z,34.23
2019-02-28T06:16:36.370Z,35.40
2019-02-28T06:19:08.239Z,33.80
2019-02-28T06:21:39.323Z,36.63
2019-02-28T06:24:12.737Z,33.60
2019-02-28T06:26:41.477Z,35.50
2019-02-28T06:29:11.719Z,33.63
2019-02-28T06:31:41.903Z,35.77
2019-02-28T06:34:12.157Z,35.03
2019-02-28T06:36:42.352Z,34.67
2019-02-28T06:39:12.942Z,36.57
2019-02-28T06:41:43.204Z,34.37
2019-02-28T06:44:14.888Z,34.97
2019-02-28T06:46:45.082Z,35.40
2019-02-28T06:49:15.308Z,34.57
2019-02-28T06:51:48.351Z,33.87
2019-02-28T06:54:17.443Z,35.60
2019-02-28T06:56:47.647Z,34.17
2019-02-28T06:59:18.180Z,35.27
2019-02-28T07:01:48.420Z,33.17
2019-02-28T07:04:18.998Z,33.80
2019-02-28T07:06:49.183Z,33.40
2019-02-28T07:09:19.696Z,36.03
2019-02-28T07:11:51.287Z,34.80
2019-02-28T07:14:22.168Z,32.33
2019-02-28T07:16:52.412Z,34.37
2019-02-28T07:19:26.168Z,33.13
2019-02-28T07:21:54.776Z,35.80
2019-02-28T07:24:24.992Z,32.90
2019-02-28T07:26:55.188Z,34.97
2019-02-28T07:29:25.352Z,34.50
2019-02-28T07:32:00.016Z,33.33
2019-02-28T07:34:28.054Z,34.73
2019-02-28T07:37:05.663Z,35.57
2019-02-28T07:39:36.587Z,37.93
2019-02-28T07:42:09.308Z,35.50
2019-02-28T07:44:40.009Z,34.73
2019-02-28T07:50:02.625Z,34.73
2019-02-28T07:52:33.787Z,37.27
2019-02-28T07:55:04.943Z,37.83
2019-02-28T07:57:36.714Z,34.67
2019-02-28T08:00:16.820Z,33.37
2019-02-28T08:02:42.481Z,36.30
2019-02-28T08:05:13.663Z,37.07
2019-02-28T08:07:50.284Z,35.37
2019-02-28T08:10:17.930Z,36.03
2019-02-28T08:12:48.115Z,35.77
2019-02-28T08:15:22.424Z,37.47
2019-02-28T08:17:52.419Z,35.77
2019-02-28T08:20:22.687Z,34.17
2019-02-28T08:22:56.756Z,36.80
2019-02-28T08:25:25.170Z,35.77
2019-02-28T08:27:59.371Z,34.90
2019-02-28T08:30:27.359Z,34.07
2019-02-28T08:32:57.858Z,32.87
2019-02-28T08:35:33.979Z,33.10
2019-02-28T08:37:59.931Z,36.93
2019-02-28T08:40:30.205Z,33.60
2019-02-28T08:43:00.768Z,38.73
2019-02-28T08:45:33.204Z,37.30
2019-02-28T08:48:02.955Z,36.23
2019-02-28T08:50:33.169Z,37.30
2019-02-28T08:53:03.628Z,35.73
2019-02-28T08:55:34.680Z,38.47
2019-02-28T08:58:06.700Z,37.83
2019-02-28T09:00:37.796Z,39.33
2019-02-28T09:03:08.815Z,40.97
2019-02-28T09:05:40.072Z,39.87
2019-02-28T09:08:10.260Z,39.77
2019-02-28T09:10:40.496Z,39.93
2019-02-28T09:13:11.014Z,37.20
2019-02-28T09:15:41.460Z,40.13
2019-02-28T09:18:11.652Z,41.70
2019-02-28T09:20:45.119Z,39.20
2019-02-28T09:23:15.545Z,40.87
2019-02-28T09:25:46.872Z,40.83
2019-02-28T09:28:17.091Z,43.43
2019-02-28T09:30:47.800Z,40.73
2019-02-28T09:33:19.354Z,43.23
2019-02-28T09:35:50.716Z,42.87
2019-02-28T09:38:20.924Z,43.83
2019-02-28T09:40:51.149Z,42.03
2019-02-28T09:43:23.924Z,43.20
2019-02-28T09:45:53.559Z,43.63
2019-02-28T09:48:23.762Z,46.80
2019-02-28T09:50:57.767Z,45.80
2019-02-28T09:53:26.621Z,48.07
2019-02-28T09:55:56.994Z,48.57
2019-02-28T09:58:29.320Z,47.27
2019-02-28T10:00:59.017Z,48.87
2019-02-28T10:03:29.629Z,48.70
2019-02-28T10:06:00.145Z,47.00
2019-02-28T10:08:30.303Z,50.07
2019-02-28T10:11:00.577Z,50.57
2019-02-28T10:13:31.122Z,54.17
2019-02-28T10:16:01.531Z,50.87
2019-02-28T10:18:31.890Z,48.97
2019-02-28T10:21:02.718Z,48.43
2019-02-28T10:23:33.099Z,50.27
2019-02-28T10:26:03.618Z,44.57
2019-02-28T10:28:34.113Z,46.43
2019-02-28T10:31:04.441Z,42.37
2019-02-28T10:33:34.633Z,41.70
2019-02-28T10:36:04.882Z,41.97
2019-02-28T10:38:35.180Z,38.97
2019-02-28T10:41:06.017Z,39.43
2019-02-28T10:43:36.165Z,35.33
2019-02-28T10:46:06.785Z,36.67
2019-02-28T10:48:41.729Z,33.53
2019-02-28T10:51:13.890Z,34.53
2019-02-28T10:53:40.911Z,31.27
2019-02-28T10:56:11.234Z,26.30
2019-02-28T10:58:41.571Z,27.17
2019-02-28T11:01:13.247Z,25.07
2019-02-28T11:03:43.511Z,21.90
2019-02-28T11:06:14.041Z,20.33
2019-02-28T11:08:47.535Z,18.97
2019-02-28T11:11:18.007Z,16.60
2019-02-28T11:13:48.231Z,15.63
2019-02-28T11:16:20.434Z,14.17
2019-02-28T11:18:50.454Z,13.73
2019-02-28T11:21:21.417Z,11.53
2019-02-28T11:23:51.878Z,10.70
2019-02-28T11:26:22.102Z,10.27
2019-02-28T11:28:52.291Z,10.23
2019-02-28T11:31:22.534Z,9.80
2019-02-28T11:33:53.116Z,10.80
2019-02-28T11:36:24.498Z,9.87
2019-02-28T11:38:55.432Z,10.13
2019-02-28T11:41:26.541Z,8.80
2019-02-28T11:43:57.165Z,9.03
2019-02-28T11:46:27.372Z,8.93
2019-02-28T11:48:57.586Z,7.97
2019-02-28T11:51:27.816Z,7.57
2019-02-28T11:53:58.024Z,7.57
2019-02-28T11:56:29.447Z,7.10
2019-02-28T11:59:01.268Z,7.03
2019-02-28T12:01:31.580Z,6.87
2019-02-28T12:04:01.760Z,6.93
2019-02-28T12:06:33.059Z,6.40
2019-02-28T12:09:05.164Z,7.30
2019-02-28T12:11:36.553Z,5.70
2019-02-28T12:14:08.113Z,6.63
2019-02-28T12:16:38.421Z,6.10
2019-02-28T12:19:08.607Z,6.43
2019-02-28T12:21:38.905Z,6.63
2019-02-28T12:24:09.235Z,6.10
2019-02-28T12:26:39.812Z,6.00
2019-02-28T12:29:12.891Z,6.20
2019-02-28T12:31:41.987Z,6.47
2019-02-28T12:34:12.132Z,6.07
2019-02-28T12:36:42.701Z,6.03
2019-02-28T12:39:12.901Z,6.03
2019-02-28T12:41:43.405Z,6.40
2019-02-28T12:44:15.380Z,6.17
2019-02-28T12:46:46.037Z,6.73
2019-02-28T12:49:21.822Z,5.63
2019-02-28T12:51:48.424Z,4.93
2019-02-28T12:54:19.310Z,5.40
2019-02-28T12:56:49.609Z,5.47
2019-02-28T12:59:20.255Z,6.17
2019-02-28T13:01:50.488Z,5.50
2019-02-28T13:04:20.594Z,5.90
2019-02-28T13:06:51.221Z,4.97
2019-02-28T13:09:21.870Z,4.60
2019-02-28T13:11:52.425Z,4.93
2019-02-28T13:14:22.613Z,4.43
2019-02-28T13:16:54.591Z,4.43
2019-02-28T13:19:25.455Z,4.63
2019-02-28T13:21:55.680Z,4.87
2019-02-28T13:24:26.075Z,4.20
2019-02-28T13:26:56.373Z,4.20
2019-02-28T13:29:28.769Z,4.10
2019-02-28T13:32:01.411Z,4.13
2019-02-28T13:34:30.561Z,4.20
2019-02-28T13:37:03.187Z,4.47
2019-02-28T13:39:33.135Z,4.87
2019-02-28T13:42:04.326Z,5.00
2019-02-28T13:44:36.450Z,5.97
2019-02-28T13:47:09.902Z,4.67
2019-02-28T13:49:38.626Z,4.80
2019-02-28T13:52:10.367Z,4.43
2019-02-28T13:54:42.448Z,4.60
2019-02-28T13:57:12.827Z,4.13
2019-02-28T13:59:43.017Z,4.50
2019-02-28T14:02:13.727Z,4.60
2019-02-28T14:04:44.055Z,4.40
2019-02-28T14:07:14.279Z,4.67
2019-02-28T14:09:44.466Z,4.83
2019-02-28T14:12:16.951Z,4.03
2019-02-28T14:14:46.987Z,3.70
2019-02-28T14:17:17.627Z,3.60
2019-02-28T14:19:47.875Z,3.93
2019-02-28T14:22:18.167Z,3.60
2019-02-28T14:24:48.410Z,3.43
2019-02-28T14:27:21.588Z,3.83
2019-02-28T14:29:50.636Z,3.83
2019-02-28T14:32:20.812Z,3.20
2019-02-28T14:34:51.034Z,3.07
2019-02-28T14:37:21.328Z,3.00
2019-02-28T14:39:51.875Z,4.13
2019-02-28T14:42:22.630Z,3.10
2019-02-28T14:44:52.800Z,3.23
2019-02-28T14:47:24.880Z,3.07
2019-02-28T14:49:55.229Z,2.63
2019-02-28T14:52:25.792Z,2.83
2019-02-28T14:54:57.075Z,3.17
2019-02-28T14:57:28.474Z,2.20
2019-02-28T15:00:00.107Z,2.80
2019-02-28T15:02:30.488Z,2.60
2019-02-28T15:05:00.682Z,2.33
2019-02-28T15:07:35.271Z,2.00
2019-02-28T15:10:05.568Z,2.00
2019-02-28T15:12:35.770Z,1.80
2019-02-28T15:15:08.260Z,2.07
2019-02-28T15:17:39.647Z,2.10
2019-02-28T15:20:13.377Z,3.10
2019-02-28T15:22:43.029Z,1.90
2019-02-28T15:25:15.342Z,2.30
2019-02-28T15:27:46.467Z,2.07
2019-02-28T15:30:22.073Z,1.90
2019-02-28T15:32:54.233Z,1.60
2019-02-28T15:35:24.291Z,1.87
2019-02-28T15:37:54.880Z,1.80
2019-02-28T15:40:27.406Z,1.70
2019-02-28T15:42:57.638Z,2.73
2019-02-28T15:45:27.861Z,1.90
2019-02-28T15:48:00.243Z,2.17
2019-02-28T15:50:30.405Z,2.20
2019-02-28T15:53:01.328Z,1.97
2019-02-28T15:55:35.153Z,2.43
2019-02-28T15:58:05.905Z,2.43
2019-02-28T16:00:37.240Z,2.63
2019-02-28T16:03:07.474Z,3.50
2019-02-28T16:05:42.713Z,3.87
2019-02-28T16:08:10.842Z,2.40
2019-02-28T16:10:52.610Z,3.37
2019-02-28T16:13:14.309Z,3.30
2019-02-28T16:15:46.279Z,3.20
2019-02-28T16:18:16.440Z,3.33
2019-02-28T16:20:46.727Z,3.30
2019-02-28T16:23:16.981Z,3.87
2019-02-28T16:25:50.071Z,4.60
2019-02-28T16:28:19.899Z,4.30
2019-02-28T16:30:50.317Z,3.77
2019-02-28T16:33:24.751Z,3.73
2019-02-28T16:35:53.273Z,4.40
2019-02-28T16:38:23.879Z,5.43
2019-02-28T16:40:54.106Z,4.90
2019-02-28T16:43:24.316Z,5.23
2019-02-28T16:45:54.652Z,4.63
2019-02-28T16:48:24.890Z,3.73
2019-02-28T16:50:56.934Z,5.77
2019-02-28T16:53:27.036Z,4.47
2019-02-28T16:55:59.167Z,5.03
2019-02-28T16:58:29.243Z,5.03
2019-02-28T17:00:59.437Z,5.40
2019-02-28T17:03:29.716Z,4.67
2019-02-28T17:06:01.724Z,6.63
2019-02-28T17:08:36.074Z,5.10
2019-02-28T17:11:06.360Z,5.20
2019-02-28T17:13:47.816Z,5.13
2019-02-28T17:16:25.122Z,4.50
2019-02-28T17:18:56.878Z,5.07
2019-02-28T17:21:27.635Z,5.53
2019-02-28T17:23:57.924Z,5.23
2019-02-28T17:27:05.735Z,4.60
2019-02-28T17:29:44.725Z,4.37
2019-02-28T17:32:15.239Z,4.37
2019-02-28T17:34:45.466Z,4.10
2019-02-28T17:37:15.670Z,4.63
2019-02-28T17:39:47.446Z,4.10
2019-02-28T17:42:18.707Z,4.67
2019-02-28T17:45:17.208Z,4.33
2019-02-28T17:48:24.998Z,4.83
2019-02-28T17:51:23.392Z,11.43
2019-02-28T17:54:20.798Z,5.63
2019-02-28T17:57:27.656Z,4.70
2019-02-28T18:00:52.910Z,3.93
2019-02-28T18:03:44.962Z,4.93
2019-02-28T18:07:04.096Z,5.43
2019-02-28T18:10:07.147Z,4.73
2019-02-28T18:12:56.500Z,5.53
2019-02-28T18:15:50.091Z,5.37
2019-02-28T18:18:59.334Z,4.70
2019-02-28T18:22:00.969Z,4.47
2019-02-28T18:24:44.636Z,5.33
2019-02-28T18:27:29.693Z,5.33
2019-02-28T18:30:47.128Z,5.33
2019-02-28T18:33:19.458Z,6.40
2019-02-28T18:35:49.894Z,5.97
2019-02-28T18:38:20.143Z,6.27
2019-02-28T18:40:50.427Z,6.20
2019-02-28T18:43:20.703Z,6.93
2019-02-28T18:45:53.616Z,5.90
2019-02-28T18:48:22.885Z,5.83
2019-02-28T18:50:53.102Z,6.30
2019-02-28T18:53:23.474Z,5.90
2019-02-28T18:55:54.109Z,5.83
2019-02-28T18:58:24.432Z,6.00
2019-02-28T19:00:54.641Z,6.40
2019-02-28T19:03:24.883Z,6.77
2019-02-28T19:05:55.879Z,6.40
2019-02-28T19:08:26.160Z,6.77
2019-02-28T19:10:56.439Z,6.37
2019-02-28T19:13:26.693Z,5.60
2019-02-28T19:15:57.037Z,6.40
2019-02-28T19:18:27.342Z,6.30
2019-02-28T19:20:57.678Z,6.50
2019-02-28T19:23:27.875Z,5.90
2019-02-28T19:25:58.385Z,6.20
2019-02-28T19:28:31.434Z,5.40
2019-02-28T19:31:01.721Z,5.77
2019-02-28T19:33:32.339Z,6.20
2019-02-28T19:36:02.793Z,5.83
2019-02-28T19:38:32.984Z,5.17
2019-02-28T19:41:03.360Z,6.53
2019-02-28T19:43:33.518Z,5.10
2019-02-28T19:46:04.081Z,6.00
2019-02-28T19:48:37.090Z,5.27
2019-02-28T19:51:07.393Z,5.30
2019-02-28T19:53:37.617Z,5.70
2019-02-28T19:56:07.905Z,5.20
2019-02-28T19:58:38.052Z,5.17
2019-02-28T20:01:08.726Z,4.37
2019-02-28T20:03:39.276Z,4.97
2019-02-28T20:06:09.480Z,4.70
2019-02-28T20:08:40.371Z,5.00
2019-02-28T20:11:10.533Z,4.90
2019-02-28T20:13:41.183Z,5.20
2019-02-28T20:16:11.523Z,5.53
2019-02-28T20:18:42.130Z,5.73
2019-02-28T20:21:12.893Z,4.93
2019-02-28T20:23:43.195Z,5.07
2019-02-28T20:26:13.518Z,5.63
2019-02-28T20:28:43.801Z,5.53
2019-02-28T20:31:14.018Z,5.43
2019-02-28T20:33:44.336Z,5.07
2019-02-28T20:36:15.052Z,5.53
2019-02-28T20:38:45.322Z,6.07
2019-02-28T20:41:15.514Z,7.27
2019-02-28T20:43:46.190Z,6.83
2019-02-28T20:46:16.450Z,7.03
2019-02-28T20:48:46.686Z,8.17
2019-02-28T20:51:16.969Z,6.97
2019-02-28T20:53:47.173Z,6.87
2019-02-28T20:56:17.465Z,6.40
2019-02-28T20:58:47.725Z,7.23
2019-02-28T21:01:18.004Z,6.77
2019-02-28T21:03:48.343Z,5.93
2019-02-28T21:06:18.645Z,6.67
2019-02-28T21:08:48.825Z,7.03
2019-02-28T21:11:19.109Z,6.37
2019-02-28T21:13:49.371Z,6.37
2019-02-28T21:16:20.008Z,6.80
2019-02-28T21:18:50.801Z,6.17
2019-02-28T21:21:21.048Z,6.10
2019-02-28T21:23:51.375Z,6.63
2019-02-28T21:26:21.613Z,6.37
2019-02-28T21:28:53.647Z,6.00
2019-02-28T21:31:23.795Z,5.67
2019-02-28T21:33:54.083Z,6.00
2019-02-28T21:36:24.727Z,7.13
2019-02-28T21:38:55.038Z,6.47
2019-02-28T21:41:25.331Z,6.27
2019-02-28T21:43:56.477Z,5.77
2019-02-28T21:46:26.739Z,6.10
2019-02-28T21:48:57.291Z,6.40
2019-02-28T21:51:27.605Z,6.57
2019-02-28T21:53:58.691Z,6.47
2019-02-28T21:56:28.963Z,7.17
2019-02-28T21:59:00.269Z,6.67
2019-02-28T22:01:30.839Z,7.50
2019-02-28T22:04:01.099Z,6.87
2019-02-28T22:06:31.287Z,7.50
2019-02-28T22:09:01.552Z,7.67
2019-02-28T22:11:33.462Z,7.70
2019-02-28T22:14:03.643Z,7.27
2019-02-28T22:16:33.876Z,7.37
2019-02-28T22:19:04.062Z,7.87
2019-02-28T22:21:34.280Z,8.60
2019-02-28T22:24:05.709Z,8.20
2019-02-28T22:26:35.924Z,8.33
2019-02-28T22:29:06.136Z,9.53
2019-02-28T22:31:54.116Z,7.93
2019-02-28T22:34:43.356Z,8.23
2019-02-28T22:37:13.564Z,9.83
2019-02-28T22:39:43.764Z,8.93
2019-02-28T22:42:21.724Z,8.60
2019-02-28T22:44:45.959Z,9.73
2019-02-28T22:47:16.176Z,9.20
2019-02-28T22:49:46.416Z,8.63
2019-02-28T22:52:17.048Z,9.53
2019-02-28T22:54:47.644Z,9.70
2019-02-28T22:57:17.857Z,8.23
2019-02-28T22:59:48.052Z,9.60
2019-02-28T23:02:19.345Z,9.40
2019-02-28T23:04:49.616Z,9.17
2019-02-28T23:07:20.861Z,9.60
2019-02-28T23:09:51.080Z,8.67
2019-02-28T23:12:21.348Z,8.77
2019-02-28T23:14:51.529Z,9.00
2019-02-28T23:17:21.792Z,7.90
2019-02-28T23:19:52.312Z,8.73
2019-02-28T23:22:22.517Z,8.53
2019-02-28T23:24:53.061Z,8.40
2019-02-28T23:27:23.218Z,7.93
2019-02-28T23:30:27.725Z,8.60
2019-02-28T23:33:05.112Z,9.27
2019-02-28T23:35:38.075Z,8.33
2019-02-28T23:38:08.285Z,8.70
2019-02-28T23:40:38.590Z,9.20
2019-02-28T23:43:09.093Z,8.60
2019-02-28T23:45:39.282Z,8.87
2019-02-28T23:48:09.478Z,9.33
2019-02-28T23:50:39.680Z,8.57
2019-02-28T23:53:09.910Z,9.37
2019-02-28T23:55:40.545Z,9.47
2019-02-28T23:58:10.849Z,9.67
